Time;durP1;ratioP1;P1;durP2;ratioP2;P2;SDS_P1;SDS_P2;PMS_P1;PMS_P2;Temp;Humidity;BMP_temperature;BMP_pressure;BME280_temperature;BME280_humidity;BME280_pressure;Samples;Min_cycle;Max_cycle;Signal;HPM_P1;HPM_P2
2022/04/20 00:02:24;;;;;;;324.00;295.48;;;;;;;18.14;28.45;93289.16;4992325;28;20881;-72
2022/04/20 00:04:49;;;;;;;324.20;295.70;;;;;;;18.15;28.57;93282.53;4994402;28;20049;-72
2022/04/20 00:07:18;;;;;;;341.15;311.05;;;;;;;18.14;28.68;93289.91;4970781;28;20091;-71
2022/04/20 00:09:43;;;;;;;325.10;297.48;;;;;;;18.14;28.63;93281.78;4990316;28;20050;-72
2022/04/20 00:12:09;;;;;;;328.58;300.77;;;;;;;18.14;28.57;93281.03;4995125;28;20461;-72
2022/04/20 00:14:38;;;;;;;332.90;304.05;;;;;;;18.14;28.57;93278.31;4990099;28;20049;-72
2022/04/20 00:17:04;;;;;;;329.25;301.40;;;;;;;18.14;28.45;93275.63;4989836;28;20038;-71
2022/04/20 00:19:35;;;;;;;327.23;299.52;;;;;;;18.14;28.47;93276.38;4998315;28;20034;-72
2022/04/20 00:22:01;;;;;;;326.70;298.42;;;;;;;18.14;28.57;93272.91;4987847;28;20054;-71
2022/04/20 00:24:27;;;;;;;313.63;286.42;;;;;;;18.13;28.53;93269.47;4998242;28;21129;-72
2022/04/20 00:26:52;;;;;;;322.13;294.63;;;;;;;18.12;28.18;93259.09;4998473;28;20041;-72
2022/04/20 00:29:20;;;;;;;339.35;310.35;;;;;;;18.12;28.75;93262.56;4992728;28;20049;-71
2022/04/20 00:31:46;;;;;;;329.52;301.35;;;;;;;18.11;28.58;93261.06;4992878;28;20046;-72
2022/04/20 00:34:11;;;;;;;341.05;312.23;;;;;;;18.11;28.42;93261.06;4997793;28;20050;-72
2022/04/20 00:36:37;;;;;;;336.08;307.92;;;;;;;18.10;28.46;93254.91;5000237;28;20042;-72
2022/04/20 00:39:03;;;;;;;333.10;304.30;;;;;;;18.09;28.53;93258.84;5005946;28;20042;-72
2022/04/20 00:41:28;;;;;;;329.42;300.63;;;;;;;18.08;28.47;93257.34;4996746;28;20038;-72
2022/04/20 00:43:54;;;;;;;338.95;309.23;;;;;;;18.07;28.54;93258.56;4997687;28;20048;-72
2022/04/20 00:46:21;;;;;;;333.13;304.25;;;;;;;18.07;28.46;93258.56;4997721;28;20050;-71
2022/04/20 00:48:50;;;;;;;323.77;295.92;;;;;;;18.08;28.55;93253.91;4995291;28;20530;-72
2022/04/20 00:51:16;;;;;;;320.05;292.35;;;;;;;18.06;28.64;93257.06;5003848;28;20091;-72
2022/04/20 00:53:41;;;;;;;320.30;292.55;;;;;;;18.06;28.66;93259.78;4996667;28;20061;-71
2022/04/20 00:56:07;;;;;;;331.90;303.27;;;;;;;18.07;28.54;93255.13;4992035;28;20125;-72
2022/04/20 00:58:34;;;;;;;327.10;298.85;;;;;;;18.06;28.54;93256.34;4989043;28;20113;-72
2022/04/20 01:01:00;;;;;;;337.67;307.70;;;;;;;18.05;28.69;93252.88;4996016;28;20184;-72
2022/04/20 01:03:26;;;;;;;326.90;299.55;;;;;;;18.05;28.47;93250.19;4997120;28;20046;-72
2022/04/20 01:05:51;;;;;;;323.42;295.52;;;;;;;18.04;28.61;93251.38;4996138;28;20104;-72
2022/04/20 01:08:17;;;;;;;335.15;306.40;;;;;;;18.03;28.51;93255.31;5000873;28;20049;-72
2022/04/20 01:10:42;;;;;;;331.15;302.38;;;;;;;18.04;28.51;93256.81;4992383;28;20742;-72
2022/04/20 01:13:08;;;;;;;316.23;288.90;;;;;;;18.03;28.41;93258.03;5007390;28;20088;-72
2022/04/20 01:15:34;;;;;;;321.42;294.33;;;;;;;18.03;28.54;93251.88;5002426;28;20045;-72
2022/04/20 01:18:09;;;;;;;321.30;293.77;;;;;;;18.01;28.52;93252.34;5001514;28;20049;-70
2022/04/20 01:20:35;;;;;;;321.60;293.40;;;;;;;18.02;28.53;93239.56;4995662;28;20041;-70
2022/04/20 01:23:00;;;;;;;325.90;297.33;;;;;;;18.01;28.65;93243.47;4994845;28;20042;-70
2022/04/20 01:25:26;;;;;;;321.33;293.63;;;;;;;18.00;28.51;93248.13;5005054;28;20348;-71
2022/04/20 01:27:51;;;;;;;310.63;283.35;;;;;;;18.00;28.50;93234.63;4999685;28;24838;-70
2022/04/20 01:30:17;;;;;;;327.20;299.33;;;;;;;18.02;28.43;93236.84;4994956;28;20050;-70
2022/04/20 01:32:42;;;;;;;316.95;289.83;;;;;;;18.00;28.54;93237.31;5011509;28;20722;-70
2022/04/20 01:35:08;;;;;;;323.52;295.45;;;;;;;17.99;28.52;93229.66;5002729;28;20057;-70
2022/04/20 01:37:34;;;;;;;308.63;281.52;;;;;;;18.00;28.65;93231.16;5003089;28;20037;-70
2022/04/20 01:39:59;;;;;;;335.63;306.88;;;;;;;17.99;28.51;93235.81;5010813;28;20038;-70
2022/04/20 01:42:25;;;;;;;326.90;298.83;;;;;;;17.99;28.27;93232.38;5000437;28;20340;-71
2022/04/20 01:44:51;;;;;;;313.75;286.33;;;;;;;17.98;28.69;93228.19;5003311;28;20531;-70
2022/04/20 01:47:17;;;;;;;312.13;284.98;;;;;;;17.96;28.50;93228.66;4991131;28;20100;-70
2022/04/20 01:49:43;;;;;;;309.35;281.73;;;;;;;17.96;28.67;93225.94;5000006;28;20058;-70
2022/04/20 01:52:08;;;;;;;313.67;286.38;;;;;;;17.97;28.78;93224.00;4996800;28;20042;-70
2022/04/20 01:54:33;;;;;;;324.40;295.77;;;;;;;17.97;28.57;93240.22;4992048;28;20137;-70
2022/04/20 01:56:59;;;;;;;325.38;297.50;;;;;;;17.96;28.59;93236.78;4997437;28;20052;-70
2022/04/20 01:59:24;;;;;;;319.55;291.88;;;;;;;17.94;28.54;93222.97;5002547;28;20053;-70
2022/04/20 02:04:34;;;;;;;318.70;290.45;;;;;;;17.95;28.68;93234.53;4997279;28;20089;-70
2022/04/20 02:06:59;;;;;;;311.02;283.80;;;;;;;17.95;28.67;93224.47;4988758;28;20050;-70
2022/04/20 02:09:25;;;;;;;316.13;288.58;;;;;;;17.93;28.66;93226.16;4995360;28;20534;-70
2022/04/20 02:11:51;;;;;;;336.45;306.63;;;;;;;17.94;28.71;93230.34;4982191;28;20045;-70
2022/04/20 02:14:17;;;;;;;338.90;308.85;;;;;;;17.94;28.64;93222.22;4985182;28;20048;-70
2022/04/20 02:16:42;;;;;;;312.20;284.92;;;;;;;17.94;28.62;93224.94;4992054;28;20050;-70
2022/04/20 02:19:08;;;;;;;322.98;294.25;;;;;;;17.93;28.50;93223.44;4998465;28;20076;-70
2022/04/20 02:21:34;;;;;;;327.45;298.90;;;;;;;17.92;28.62;93214.59;4993041;28;20076;-70
2022/04/20 02:23:59;;;;;;;321.27;293.48;;;;;;;17.93;28.75;93218.03;4990797;28;20138;-71
2022/04/20 02:26:25;;;;;;;321.10;292.73;;;;;;;17.92;28.86;93205.72;5001839;28;20119;-70
2022/04/20 02:28:51;;;;;;;332.25;302.25;;;;;;;17.93;28.69;93215.31;4993587;28;20459;-70
2022/04/20 02:31:16;;;;;;;306.90;279.95;;;;;;;17.93;28.58;93215.31;5000358;28;20029;-70
2022/04/20 02:33:43;;;;;;;320.73;292.20;;;;;;;17.94;28.39;93216.81;4998805;28;20062;-70
2022/04/20 02:36:08;;;;;;;317.65;290.02;;;;;;;17.91;28.67;93221.22;4998298;28;20068;-70
2022/04/20 02:38:35;;;;;;;319.48;291.27;;;;;;;17.92;28.52;93219.25;4996086;28;20044;-70
2022/04/20 02:41:01;;;;;;;313.73;285.80;;;;;;;17.92;28.63;93216.53;4997629;28;20053;-70
2022/04/20 02:43:27;;;;;;;316.83;289.45;;;;;;;17.91;28.57;93220.47;5001613;28;20042;-70
2022/04/20 02:45:52;;;;;;;320.50;292.42;;;;;;;17.92;28.47;93213.84;5003653;28;20072;-70
2022/04/20 02:48:18;;;;;;;317.33;289.55;;;;;;;17.91;28.61;93215.06;5000338;28;20109;-70
2022/04/20 02:50:44;;;;;;;313.48;285.92;;;;;;;17.92;28.68;93206.47;5006620;28;20052;-70
2022/04/20 02:53:09;;;;;;;323.17;295.13;;;;;;;17.92;28.59;93211.13;4997928;28;20060;-70
2022/04/20 02:55:35;;;;;;;316.45;288.33;;;;;;;17.91;28.51;93204.97;5000838;28;21022;-70
2022/04/20 02:58:00;;;;;;;319.58;291.95;;;;;;;17.92;28.55;93205.72;5000149;28;20062;-70
2022/04/20 03:00:26;;;;;;;351.60;319.63;;;;;;;17.93;28.64;93207.22;4985953;28;20069;-70
2022/04/20 03:02:51;;;;;;;309.58;282.55;;;;;;;17.92;28.53;93203.75;4990846;28;20135;-70
2022/04/20 03:05:17;;;;;;;307.33;280.10;;;;;;;17.90;28.63;93208.16;4995201;28;20484;-70
2022/04/20 03:07:42;;;;;;;318.33;290.42;;;;;;;17.90;28.62;93211.59;4998060;28;20129;-70
2022/04/20 03:10:09;;;;;;;317.67;290.17;;;;;;;17.91;28.56;93204.22;4996470;28;20062;-70
2022/04/20 03:12:35;;;;;;;323.02;294.85;;;;;;;17.92;28.65;93211.13;4997194;28;20042;-70
2022/04/20 03:15:00;;;;;;;312.92;284.95;;;;;;;17.93;28.49;93212.63;5002034;28;20060;-71
2022/04/20 03:17:26;;;;;;;318.35;290.55;;;;;;;17.94;28.66;93216.81;4999690;28;20060;-71
2022/04/20 03:19:51;;;;;;;314.25;286.92;;;;;;;17.93;28.72;93216.06;4990958;28;20042;-70
2022/04/20 03:22:17;;;;;;;316.70;288.63;;;;;;;17.93;28.69;93213.38;4997022;28;20094;-70
2022/04/20 03:24:44;;;;;;;329.85;301.13;;;;;;;17.93;28.53;93216.06;4992476;28;20052;-70
2022/04/20 03:27:09;;;;;;;326.33;297.92;;;;;;;17.93;28.56;93207.97;5013885;28;20377;-70
2022/04/20 03:29:35;;;;;;;312.88;285.40;;;;;;;17.93;28.66;93210.66;4997182;28;20079;-70
2022/04/20 03:32:08;;;;;;;334.90;305.30;;;;;;;17.93;28.47;93212.63;4995027;28;20049;-70
2022/04/20 03:34:33;;;;;;;313.80;286.38;;;;;;;17.93;28.62;93209.91;4993640;28;20049;-70
2022/04/20 03:36:59;;;;;;;316.65;288.67;;;;;;;17.94;28.62;93212.16;5009613;28;20041;-70
2022/04/20 03:39:25;;;;;;;312.35;285.00;;;;;;;17.93;28.47;93215.31;5000456;28;20042;-70
2022/04/20 03:41:50;;;;;;;321.35;293.73;;;;;;;17.93;28.49;93213.38;4995404;28;20097;-70
2022/04/20 03:44:15;;;;;;;322.48;294.02;;;;;;;17.92;28.58;93211.13;4996176;28;20131;-70
2022/04/20 03:46:41;;;;;;;318.00;290.83;;;;;;;17.92;28.58;93214.59;5000625;28;20529;-71
2022/04/20 03:49:06;;;;;;;330.33;300.70;;;;;;;17.94;28.68;93214.13;4991509;28;20111;-71
2022/04/20 03:51:32;;;;;;;312.02;285.23;;;;;;;17.92;28.56;93211.88;4996778;28;20548;-71
2022/04/20 03:53:58;;;;;;;304.05;277.35;;;;;;;17.93;28.42;93210.66;4995600;28;20835;-71
2022/04/20 03:56:24;;;;;;;319.88;292.10;;;;;;;17.94;28.54;93214.84;4999006;28;20073;-71
2022/04/20 03:58:49;;;;;;;328.80;300.08;;;;;;;17.94;28.71;93209.44;4999519;28;20627;-71
2022/04/20 04:01:16;;;;;;;323.92;295.35;;;;;;;17.95;28.59;93213.63;5001094;28;20706;-71
2022/04/20 04:03:41;;;;;;;335.25;305.55;;;;;;;17.95;28.66;93212.91;4999634;28;20045;-71
2022/04/20 04:06:07;;;;;;;320.40;292.73;;;;;;;17.95;28.60;93208.22;4988085;28;20042;-71
2022/04/20 04:08:32;;;;;;;311.70;284.98;;;;;;;17.96;28.67;93215.13;4997914;28;20070;-71
2022/04/20 04:10:58;;;;;;;323.35;295.05;;;;;;;17.97;28.73;93216.63;4995908;28;20049;-69
2022/04/20 04:13:24;;;;;;;322.83;295.30;;;;;;;17.99;28.66;93214.19;4996989;28;20047;-71
2022/04/20 04:15:50;;;;;;;317.50;290.40;;;;;;;18.00;28.62;93212.97;5010164;28;20050;-72
2022/04/20 04:18:16;;;;;;;326.48;298.50;;;;;;;18.00;28.53;93212.97;5006750;28;20052;-72
2022/04/20 04:20:43;;;;;;;320.90;293.48;;;;;;;18.03;28.76;93222.09;5007617;28;20096;-74
2022/04/20 04:23:09;;;;;;;315.23;287.70;;;;;;;18.04;28.69;93208.09;5000665;28;20703;-75
2022/04/20 04:25:34;;;;;;;330.48;302.73;;;;;;;18.04;28.54;93210.81;5011276;28;20084;-71
2022/04/20 04:28:00;;;;;;;328.88;301.73;;;;;;;18.06;28.62;93216.50;5002123;28;20505;-72
2022/04/20 04:30:27;;;;;;;318.85;292.25;;;;;;;18.08;28.48;93216.03;5001009;28;20038;-72
2022/04/20 04:32:53;;;;;;;330.45;302.40;;;;;;;18.09;28.55;93217.50;4989995;28;20156;-71
2022/04/20 04:35:19;;;;;;;341.30;312.50;;;;;;;18.09;28.58;93220.97;4998630;28;20050;-70
2022/04/20 04:37:45;;;;;;;337.23;309.08;;;;;;;18.09;28.41;93218.25;5004065;28;20037;-68
2022/04/20 04:40:11;;;;;;;335.85;307.52;;;;;;;18.12;28.65;93226.63;5000443;28;20061;-69
2022/04/20 04:42:37;;;;;;;327.85;300.17;;;;;;;18.13;28.77;93220.00;4989778;28;20833;-69
2022/04/20 04:50:31;;;;;;;323.30;296.13;;;;;;;18.19;28.75;93215.41;4997549;28;20147;-70
2022/04/20 04:52:57;;;;;;;324.30;296.63;;;;;;;18.21;28.71;93223.78;5007029;28;20045;-70
2022/04/20 04:55:22;;;;;;;322.92;296.15;;;;;;;18.23;28.68;93221.34;5008371;28;20060;-70
2022/04/20 04:57:47;;;;;;;329.98;302.90;;;;;;;18.22;28.63;93228.72;5000458;28;20419;-70
2022/04/20 05:00:13;;;;;;;325.15;298.25;;;;;;;18.24;28.57;93231.69;5000813;28;20080;-70
2022/04/20 05:02:39;;;;;;;329.50;302.08;;;;;;;18.26;28.35;93231.22;5004934;28;20446;-70
2022/04/20 05:05:05;;;;;;;324.65;298.13;;;;;;;18.25;28.37;93224.31;4997975;28;20043;-70
2022/04/20 05:07:31;;;;;;;326.35;299.25;;;;;;;18.25;28.42;93227.78;5004903;28;20371;-70
2022/04/20 05:09:56;;;;;;;340.98;313.33;;;;;;;18.28;28.35;93236.91;5008409;28;20048;-70
2022/04/20 05:12:22;;;;;;;332.55;305.05;;;;;;;18.26;28.35;93229.25;5018897;28;20054;-70
2022/04/20 05:14:47;;;;;;;329.95;303.02;;;;;;;18.30;28.33;93235.22;4997835;28;20053;-70
2022/04/20 05:17:13;;;;;;;337.98;310.38;;;;;;;18.30;28.35;93243.34;5003410;28;20046;-70
2022/04/20 05:19:39;;;;;;;329.13;302.05;;;;;;;18.30;28.40;93240.63;4998799;28;20045;-70
2022/04/20 05:22:04;;;;;;;323.55;296.85;;;;;;;18.31;28.30;93238.66;5003823;28;20107;-70
2022/04/20 05:24:30;;;;;;;335.15;307.63;;;;;;;18.32;28.38;93240.91;4997972;28;20058;-70
2022/04/20 05:26:56;;;;;;;327.67;300.65;;;;;;;18.32;28.33;93229.31;5006902;28;20446;-70
2022/04/20 05:29:21;;;;;;;329.17;301.60;;;;;;;18.32;28.27;93238.19;5004222;28;20049;-70
2022/04/20 05:31:47;;;;;;;326.13;299.45;;;;;;;18.32;28.40;93234.75;5003061;28;20121;-70
2022/04/20 05:34:12;;;;;;;337.15;309.45;;;;;;;18.32;28.26;93237.44;4998077;28;20058;-70
2022/04/20 05:42:06;;;;;;;326.23;298.80;;;;;;;18.35;28.40;93239.22;4997942;28;20572;-71
2022/04/20 05:44:32;;;;;;;321.58;295.05;;;;;;;18.34;28.41;93235.75;5006328;28;20053;-71
2022/04/20 05:46:58;;;;;;;329.85;302.50;;;;;;;18.36;28.39;93238.72;4999841;28;20402;-70
2022/04/20 05:49:24;;;;;;;344.65;315.92;;;;;;;18.38;28.22;93243.66;4995420;28;20063;-70
2022/04/20 05:51:49;;;;;;;329.67;302.38;;;;;;;18.38;28.31;93244.41;5009920;28;20050;-70
2022/04/20 05:54:15;;;;;;;331.17;303.20;;;;;;;18.39;28.21;93243.19;5008616;28;20026;-70
2022/04/20 05:56:40;;;;;;;333.27;306.00;;;;;;;18.43;28.30;93245.69;5000007;28;20065;-69
2022/04/20 05:59:06;;;;;;;338.60;310.15;;;;;;;18.42;28.26;93247.66;4996525;28;20042;-70
2022/04/20 06:01:31;;;;;;;333.05;306.02;;;;;;;18.42;28.18;93246.91;5004140;28;20069;-70
2022/04/20 06:03:57;;;;;;;339.02;311.05;;;;;;;18.42;28.12;93242.25;5004473;28;20045;-70
2022/04/20 06:06:23;;;;;;;329.25;301.60;;;;;;;18.41;28.11;93237.31;5000607;28;20061;-70
2022/04/20 06:08:48;;;;;;;337.70;309.83;;;;;;;18.39;27.99;93231.63;5002557;28;20104;-70
2022/04/20 06:11:14;;;;;;;326.83;299.98;;;;;;;18.39;28.25;93240.50;5004991;28;20394;-70
2022/04/20 06:13:39;;;;;;;346.85;318.40;;;;;;;18.43;28.35;93237.59;4997449;28;20046;-70
2022/04/20 06:16:06;;;;;;;328.92;302.13;;;;;;;18.43;28.30;93237.59;4988549;28;20061;-70
2022/04/20 06:18:32;;;;;;;331.42;304.35;;;;;;;18.46;28.23;93239.34;4991431;28;20217;-70
2022/04/20 06:20:58;;;;;;;336.42;308.05;;;;;;;18.47;28.17;93235.41;4996488;28;20053;-70
2022/04/20 06:23:24;;;;;;;343.35;314.92;;;;;;;18.47;28.10;93232.72;5003910;28;20049;-69
2022/04/20 06:25:53;;;;;;;344.55;315.38;;;;;;;18.48;28.07;93234.19;4989993;28;20050;-70
2022/04/20 06:28:18;;;;;;;340.80;312.73;;;;;;;18.47;28.17;93231.97;5006300;28;20069;-70
2022/04/20 06:30:44;;;;;;;339.77;312.05;;;;;;;18.49;28.00;93227.56;5003138;28;20042;-69
2022/04/20 06:33:09;;;;;;;326.73;299.70;;;;;;;18.49;28.18;93224.09;5000255;28;20562;-70
2022/04/20 06:35:35;;;;;;;321.63;294.88;;;;;;;18.51;28.14;93225.13;5003891;28;20120;-70
2022/04/20 06:38:00;;;;;;;350.35;321.88;;;;;;;18.51;28.01;93216.25;5006807;28;20049;-70
2022/04/20 06:40:26;;;;;;;329.75;302.88;;;;;;;18.52;28.08;93223.16;5005566;28;20497;-70
2022/04/20 06:42:52;;;;;;;344.58;316.50;;;;;;;18.50;28.00;93226.34;5003678;28;20191;-69
2022/04/20 06:45:17;;;;;;;346.55;317.75;;;;;;;18.51;28.03;93222.41;4996962;28;20723;-69
2022/04/20 06:47:43;;;;;;;348.98;320.40;;;;;;;18.51;27.89;93224.38;5016316;28;20045;-71
2022/04/20 06:50:08;;;;;;;341.42;313.92;;;;;;;18.51;28.13;93224.38;5007745;28;20490;-70
2022/04/20 07:00:46;;;;;;;340.77;312.58;;;;;;;18.42;27.93;93220.59;4998451;28;20200;-70
2022/04/20 07:03:11;;;;;;;327.83;300.92;;;;;;;18.46;28.05;93214.22;5008905;28;20943;-71
2022/04/20 07:05:37;;;;;;;336.80;308.45;;;;;;;18.40;28.06;93216.88;5016104;28;20038;-70
2022/04/20 07:08:03;;;;;;;336.02;308.55;;;;;;;18.45;27.87;93218.91;5008378;28;20048;-70
2022/04/20 07:10:29;;;;;;;327.95;301.13;;;;;;;18.41;27.94;93215.66;5000323;28;20046;-70
2022/04/20 07:12:54;;;;;;;327.63;300.50;;;;;;;18.35;27.69;93210.19;5006999;28;20101;-71
2022/04/20 07:15:20;;;;;;;339.80;311.65;;;;;;;18.35;27.88;93212.88;5005505;28;20063;-70
2022/04/20 07:17:46;;;;;;;337.40;310.13;;;;;;;18.34;27.89;93208.69;5013540;28;20052;-71
2022/04/20 07:20:17;;;;;;;344.95;316.35;;;;;;;18.28;27.72;93207.13;5000207;28;20041;-71
2022/04/20 07:22:47;;;;;;;320.17;293.55;;;;;;;18.23;27.80;93202.41;5008349;28;20037;-71
2022/04/20 07:25:12;;;;;;;334.77;306.73;;;;;;;18.26;27.91;93206.88;5007628;28;20046;-70
2022/04/20 07:27:37;;;;;;;339.95;311.98;;;;;;;18.29;27.89;93198.53;5002177;28;20062;-71
2022/04/20 07:30:04;;;;;;;338.45;310.55;;;;;;;18.31;27.91;93200.78;5007794;28;20517;-70
2022/04/20 07:32:31;;;;;;;316.70;289.98;;;;;;;18.26;27.71;93207.59;5006626;28;20056;-71
2022/04/20 07:34:57;;;;;;;322.48;296.15;;;;;;;18.19;27.86;93205.34;5001928;28;20080;-70
2022/04/20 07:37:22;;;;;;;321.48;294.95;;;;;;;18.17;27.80;93205.06;5003328;28;20141;-71
2022/04/20 07:39:48;;;;;;;326.70;299.88;;;;;;;18.20;27.75;93206.06;4996165;28;20108;-71
2022/04/20 07:42:13;;;;;;;324.77;297.48;;;;;;;18.21;27.82;93207.53;5002861;28;20332;-71
2022/04/20 07:44:39;;;;;;;316.83;289.90;;;;;;;18.24;27.85;93207.34;5004625;28;20049;-71
2022/04/20 07:47:05;;;;;;;329.77;302.50;;;;;;;18.24;27.86;93212.00;5012573;28;20064;-71
2022/04/20 07:52:19;;;;;;;325.45;298.60;;;;;;;18.28;27.83;93199.75;5013408;28;20133;-70
2022/04/20 07:54:44;;;;;;;320.38;293.92;;;;;;;18.28;27.71;93196.31;5007155;28;20049;-70
2022/04/20 07:57:14;;;;;;;334.15;305.70;;;;;;;18.22;27.48;93201.66;4993486;28;20065;-71
2022/04/20 07:59:40;;;;;;;335.02;307.60;;;;;;;18.18;27.43;93194.97;4998789;28;20064;-70
2022/04/20 08:02:06;;;;;;;329.90;302.98;;;;;;;18.17;27.69;93193.50;4994345;28;20038;-70
2022/04/20 08:04:32;;;;;;;339.70;311.38;;;;;;;18.16;27.70;93197.41;5001867;28;20487;-70
2022/04/20 08:06:57;;;;;;;329.25;302.33;;;;;;;18.17;27.45;93199.66;5004188;28;20132;-70
2022/04/20 08:09:24;;;;;;;317.67;291.15;;;;;;;18.16;27.37;93200.88;5010522;28;20045;-70
2022/04/20 08:11:50;;;;;;;322.55;296.10;;;;;;;18.17;27.41;93199.66;5004331;28;20165;-70
2022/04/20 08:14:16;;;;;;;334.40;306.63;;;;;;;18.22;27.44;93200.91;5000638;28;20041;-70
2022/04/20 08:16:47;;;;;;;314.20;287.35;;;;;;;18.23;27.30;93205.09;5008548;28;20517;-70
2022/04/20 08:19:12;;;;;;;336.90;308.67;;;;;;;18.24;27.44;93203.88;5002996;28;20056;-70
2022/04/20 08:21:38;;;;;;;331.30;304.30;;;;;;;18.22;27.18;93200.91;5001181;28;20149;-70
2022/04/20 08:24:04;;;;;;;331.25;304.10;;;;;;;18.20;27.18;93200.66;5000523;28;20405;-70
2022/04/20 08:26:29;;;;;;;327.60;300.55;;;;;;;18.13;27.08;93204.53;5018609;28;20046;-70
2022/04/20 08:28:55;;;;;;;344.95;316.15;;;;;;;18.13;27.19;93198.38;5008092;28;20065;-70
2022/04/20 08:31:21;;;;;;;325.27;298.42;;;;;;;18.08;27.29;93205.19;5008692;28;20094;-69
2022/04/20 08:33:46;;;;;;;335.38;307.88;;;;;;;18.00;27.04;93204.84;5002016;28;20077;-70
2022/04/20 08:36:12;;;;;;;327.05;300.48;;;;;;;18.07;27.08;93209.88;5001148;28;20046;-70
2022/04/20 08:38:38;;;;;;;325.20;298.42;;;;;;;18.09;27.13;93204.72;5009312;28;20046;-70
2022/04/20 08:41:04;;;;;;;322.83;296.15;;;;;;;18.13;27.14;93204.53;5001533;28;20049;-70
2022/04/20 08:43:31;;;;;;;323.50;296.27;;;;;;;18.17;27.07;93205.06;4996611;28;20092;-70
2022/04/20 08:46:00;;;;;;;322.02;295.30;;;;;;;18.18;27.13;93211.97;4997457;28;20054;-70
2022/04/20 08:48:25;;;;;;;325.67;298.38;;;;;;;18.12;26.89;93223.94;4995284;28;20133;-70
2022/04/20 08:50:55;;;;;;;323.92;296.95;;;;;;;18.07;27.15;93215.28;5000582;28;20880;-70
2022/04/20 08:53:21;;;;;;;324.20;297.55;;;;;;;18.06;27.09;93210.34;5003803;28;20045;-70
2022/04/20 08:55:47;;;;;;;320.10;292.73;;;;;;;18.00;27.09;93218.38;5001157;28;20061;-70
2022/04/20 08:58:14;;;;;;;322.60;295.73;;;;;;;18.05;27.01;93209.59;5006931;28;20045;-70
2022/04/20 09:00:40;;;;;;;323.17;295.88;;;;;;;18.01;26.86;93209.03;5006244;28;20045;-70
2022/04/20 09:03:06;;;;;;;321.00;293.73;;;;;;;17.98;26.86;93204.59;5006102;28;20129;-71
2022/04/20 09:05:34;;;;;;;322.00;294.92;;;;;;;17.89;26.70;93212.81;5003114;28;20536;-70
2022/04/20 09:08:09;;;;;;;339.77;312.10;;;;;;;17.88;26.90;93205.19;5000812;28;20079;-70
2022/04/20 09:10:36;;;;;;;316.23;289.42;;;;;;;17.92;26.82;93206.47;5002065;28;20049;-70
2022/04/20 09:13:04;;;;;;;319.60;292.92;;;;;;;17.91;26.61;93210.38;5016454;28;20141;-70
2022/04/20 09:15:32;;;;;;;324.10;297.20;;;;;;;17.96;26.59;93207.00;5000204;28;20661;-70
2022/04/20 09:18:06;;;;;;;320.63;293.58;;;;;;;17.98;26.86;93201.88;5001024;28;20041;-70
2022/04/20 09:20:33;;;;;;;317.08;290.30;;;;;;;18.00;26.78;93207.56;5000778;28;20069;-70
2022/04/20 09:23:04;;;;;;;319.75;292.15;;;;;;;18.01;26.92;93202.88;4994978;28;20045;-70
2022/04/20 09:25:38;;;;;;;318.65;292.10;;;;;;;18.01;26.93;93202.88;5008036;28;20102;-70
2022/04/20 09:28:06;;;;;;;312.38;285.52;;;;;;;18.01;26.68;93205.59;5002078;28;20120;-70
2022/04/20 09:30:37;;;;;;;317.05;290.95;;;;;;;17.97;26.85;93205.06;4997040;28;20120;-70
2022/04/20 09:33:06;;;;;;;315.27;288.88;;;;;;;17.96;26.75;93207.00;5000519;28;20509;-69
2022/04/20 09:35:40;;;;;;;324.65;297.50;;;;;;;17.92;26.89;93195.66;5008398;28;20042;-70
2022/04/20 09:38:07;;;;;;;307.23;281.20;;;;;;;17.94;26.69;93203.28;5003460;28;20107;-70
2022/04/20 09:40:37;;;;;;;330.23;303.17;;;;;;;18.02;26.83;93199.72;5001551;28;20438;-70
2022/04/20 09:43:28;;;;;;;322.55;295.63;;;;;;;17.99;26.88;93200.66;5009324;28;20088;-70
2022/04/20 09:46:04;;;;;;;315.38;288.67;;;;;;;18.02;27.04;93191.59;5012057;28;20050;-70
2022/04/20 09:51:20;;;;;;;322.98;295.63;;;;;;;17.83;26.70;93211.25;4994520;28;20169;-70
2022/04/20 09:53:49;;;;;;;331.52;304.02;;;;;;;17.91;26.72;93198.81;5003798;28;20045;-70
2022/04/20 09:56:19;;;;;;;317.30;290.55;;;;;;;17.94;26.86;93192.47;5003077;28;20542;-70
2022/04/20 09:58:46;;;;;;;316.00;289.13;;;;;;;17.97;26.73;93192.28;5007256;28;20429;-70
2022/04/20 10:01:31;;;;;;;310.10;283.92;;;;;;;17.93;26.82;93190.97;5003771;28;20081;-70
2022/04/20 10:03:57;;;;;;;325.63;298.38;;;;;;;17.97;26.68;93197.69;5010805;28;20048;-70
2022/04/20 10:06:23;;;;;;;327.27;299.42;;;;;;;17.96;26.73;93192.75;5003508;28;20403;-70
2022/04/20 10:08:51;;;;;;;320.65;293.90;;;;;;;17.96;26.85;93185.38;5007752;28;20041;-70
2022/04/20 10:11:20;;;;;;;342.23;312.63;;;;;;;17.97;26.94;93186.84;5005303;28;20478;-70
2022/04/20 10:16:05;;;;;;;317.88;291.48;;;;;;;17.92;26.92;93189.50;5005118;28;20503;-70
2022/04/20 10:16:33;;;;;;;338.05;308.80;;;;;;;18.01;27.00;93184.69;4991227;28;20054;-70
2022/04/20 10:18:59;;;;;;;334.38;305.73;;;;;;;17.93;26.70;93182.88;4987283;28;20042;-69
2022/04/20 10:21:27;;;;;;;313.45;287.13;;;;;;;17.97;27.10;93188.81;5001455;28;20088;-70
2022/04/20 10:23:58;;;;;;;330.27;302.92;;;;;;;17.92;27.00;93176.72;5006411;28;20058;-70
2022/04/20 10:26:25;;;;;;;318.70;292.05;;;;;;;17.87;27.16;93182.78;4998626;28;20081;-70
2022/04/20 10:29:16;;;;;;;333.85;305.55;;;;;;;17.84;27.11;93170.22;5004102;28;20048;-70
2022/04/20 10:31:41;;;;;;;;;;;;;;;17.94;27.09;93174.28;4981954;28;20107;-70
2022/04/20 10:34:13;;;;;;;328.35;300.35;;;;;;;17.99;27.00;93167.44;4984290;28;20036;-70
2022/04/20 10:36:38;;;;;;;330.60;302.10;;;;;;;18.01;26.99;93165.75;4983203;28;20088;-70
2022/04/20 10:39:22;;;;;;;327.15;298.55;;;;;;;18.04;26.96;93166.78;4994825;28;20138;-70
2022/04/20 10:42:17;;;;;;;309.35;283.15;;;;;;;18.10;27.06;93157.50;4997199;28;20219;-70
2022/04/20 10:44:58;;;;;;;314.77;288.08;;;;;;;18.13;26.88;93155.81;4997205;28;20410;-70
2022/04/20 10:47:35;;;;;;;323.55;296.38;;;;;;;18.08;26.96;93159.94;5001716;28;20570;-70
2022/04/20 10:50:21;;;;;;;324.80;298.05;;;;;;;18.13;27.04;93152.38;5004197;28;20050;-70
2022/04/20 10:53:03;;;;;;;323.20;295.73;;;;;;;18.20;27.15;93149.97;5002503;28;20145;-70
2022/04/20 10:55:35;;;;;;;319.67;293.42;;;;;;;18.21;26.90;93145.28;5004423;28;20068;-70
2022/04/20 10:58:07;;;;;;;306.02;280.42;;;;;;;18.12;27.08;93153.59;5006041;28;20156;-70
2022/04/20 11:00:35;;;;;;;317.05;290.75;;;;;;;18.14;27.06;93148.44;4997671;28;20038;-70
2022/04/20 11:03:06;;;;;;;320.48;293.88;;;;;;;18.13;27.02;93149.66;4998872;28;20046;-70
2022/04/20 11:05:33;;;;;;;325.92;298.73;;;;;;;18.12;26.89;93151.63;5003985;28;20085;-70
2022/04/20 11:08:06;;;;;;;315.52;289.52;;;;;;;18.08;27.13;93146.41;5005621;28;20045;-70
2022/04/20 11:10:34;;;;;;;317.45;290.75;;;;;;;18.07;27.15;93144.19;4994698;28;20050;-70
2022/04/20 11:19:12;;;;;;;330.10;302.30;;;;;;;18.17;27.27;93137.41;5003796;28;20069;-70
2022/04/20 11:21:52;;;;;;;321.13;294.10;;;;;;;18.17;27.13;93140.13;5014657;28;20137;-70
2022/04/20 11:24:30;;;;;;;322.42;295.23;;;;;;;18.18;26.98;93136.19;5014914;28;20049;-70
2022/04/20 11:26:58;;;;;;;322.35;295.60;;;;;;;18.16;27.19;93135.19;5004981;28;20038;-70
2022/04/20 11:29:28;;;;;;;314.20;287.23;;;;;;;18.22;27.17;93130.53;4986407;28;20116;-70
2022/04/20 11:31:59;;;;;;;308.88;283.02;;;;;;;18.21;27.17;93123.66;5003383;28;20053;-70
2022/04/20 11:34:27;;;;;;;339.48;310.40;;;;;;;18.19;27.16;93134.22;4996469;28;20073;-70
2022/04/20 11:36:55;;;;;;;339.85;311.13;;;;;;;18.19;27.11;93132.25;4993611;28;20073;-71